Chon Buri, Thailand

7:56 PM +07 on April 23, 2017 (GMT +0700)
Bangkok (Suvarnabhumi) | | Change Station

Elev 7 ft 13.37 °N, 100.98 °E | Updated 26 minutes ago

Partly Cloudy
Partly Cloudy
90 °F
Feels Like 96 °F
N
9
Wind Variable Wind from South

Today
High -- | Low -- °F
--% Chance of Precip.
Yesterday
High -- | Low -- °F
Precip. -- in
Pressure 29.74 in
Visibility 6.2 miles
Clouds Few 3000 ft
Heat Index 96 °F
Dew Point 72 °F
Humidity 55%
Rainfall 0.00 in
Snow Depth Not available.
5:58 AM 6:30 PM
Waning Crescent, 12% visible
METAR VTBS 231230Z 19008KT 9999 FEW030 32/22 Q1007 NOSIG
Pressure 29.74 in
Visibility 6.2 miles
Clouds Few 3000 ft
Heat Index 96 °F
Dew Point 72 °F
Humidity 55%
Rainfall 0.00 in
Snow Depth Not available.
5:58 AM 6:30 PM
Waning Crescent, 12% visible
METAR VTBS 231230Z 19008KT 9999 FEW030 32/22 Q1007 NOSIG

Get Severe Weather Alerts

Thanks for signing up!

Be on the lookout for a verification email in your inbox.

You'll start receiving the daily forecast at 8 AM.

×

10-Day Weather Forecast

No radar image for this location.
×

Almanac

Astronomy

Apr. 23, 2017 Rise Set
Actual Time
Civil Twilight
Nautical Twilight
Astronomical Twilight
Moon
Length of Visible Light
Length of Day
Tomorrow will be .
, % of the Moon is Illuminated

Today's Extremes

Country Highs Country Lows

Community

WunderPhotos

WunderBlog® & News

Nearby

Air Quality

  Air Quality AQ Index Pollutant
Not available.

Snow Depth

Station Depth Elevation

Earthquake Activity

City Distance Mag. Time & Date
Minimum magnitude displayed is 2.5.

Coastal Water Temperatures

Place Temperature

Stations

Nearby Weather Stations

Station Location Temp. Windchill Dew Point Humidity Wind Precip. Elev Updated Type